Flight Track Log - Related Links

Times and Time Zones

All times are in EDT time to prevent confusion due to time zone crossing. See the EJA982 flight status page for this flight to view local times or setup timezone preferences in your user account.

Time Position Orientation Groundspeed Altitude Reporting Facility
EDT Latitude Longitude Course Direction KTS MPH feet Rate Location/Type
Sun 09:24:06 AM 41.3147 -95.9061 323° Northwest 180 207 1,700  Level Minneapolis Center
Sun 09:25:19 AM 41.3642 -95.9561 323° Northwest 186 214 3,800 1,842 Climbing Minneapolis Center
Sun 09:26:00 AM 41.3694 -96.0100 277° West 225 259 5,200 2,824 Climbing Minneapolis Center
Sun 09:27:01 AM 41.3689 -96.1031 270° West 252 290 8,600 2,780 Climbing Minneapolis Center
Sun 09:28:03 AM 41.3706 -96.2064 271° West 273 314 10,900 1,854 Climbing Minneapolis Center
Sun 09:29:04 AM 41.3703 -96.3308 270° West 322 371 12,400 1,721 Climbing Minneapolis Center
Sun 09:30:05 AM 41.3725 -96.4617 271° West 347 399 14,400 1,770 Climbing Minneapolis Center
Sun 09:31:06 AM 41.3739 -96.5942 271° West 356 410 16,000 1,770 Climbing Minneapolis Center
Sun 09:32:07 AM 41.3750 -96.7594 271° West 369 425 18,000 2,049 Climbing Minneapolis Center
Sun 09:33:09 AM 41.3761 -96.9028 271° West 382 440 20,200 1,951 Climbing Minneapolis Center
Sun 09:34:10 AM 41.3761 -97.0492 270° West 392 451 22,000 1,770 Climbing Minneapolis Center
Sun 09:35:11 AM 41.3775 -97.2019 271° West 407 468 23,800 984 Climbing Minneapolis Center
Sun 09:36:12 AM 41.3781 -97.3583 270° West 418 481 24,000 98 Climbing Minneapolis Center
Sun 09:37:14 AM 41.3719 -97.5189 267° West 431 496 24,000  Level Minneapolis Center
Sun 09:38:15 AM 41.3608 -97.6817 265° West 440 506 24,000  Level Minneapolis Center
Sun 09:39:16 AM 41.3503 -97.8403 265° West 434 499 24,000  Level Minneapolis Center
Sun 09:40:18 AM 41.3403 -97.9950 265° West 425 489 24,000  Level Minneapolis Center
Sun 09:41:19 AM 41.3286 -98.1597 265° West 419 482 24,000  Level Minneapolis Center
Sun 09:42:20 AM 41.3181 -98.3111 265° West 415 478 24,000  Level Minneapolis Center
Sun 09:43:22 AM 41.3067 -98.4831 265° West 413 475 24,000  Level Minneapolis Center
Sun 09:44:23 AM 41.2961 -98.6342 265° West 413 475 24,000  Level Minneapolis Center
Sun 09:45:24 AM 41.2853 -98.7839 265° West 411 473 24,000  Level Minneapolis Center
Sun 09:46:26 AM 41.2733 -98.9347 264° West 410 472 24,000  Level Minneapolis Center
Sun 09:46:50 AM 41.2694 -98.9933 265° West 412 474 24,000  Level Denver Center
Sun 09:47:51 AM 41.2575 -99.1467 264° West 410 472 24,000 -393 Level Denver Center
Sun 09:48:52 AM 41.2394 -99.2931 261° West 406 467 23,200 -1,394 Descending Denver Center
Sun 09:49:30 AM 41.2289 -99.3822 261° West 407 468 21,700 -2,182 Descending Minneapolis Center
Sun 09:50:31 AM 41.2108 -99.5253 261° West 401 461 19,600 -2,244 Descending Minneapolis Center
Sun 09:51:33 AM 41.1886 -99.6872 260° West 386 444 17,100 -2,143 Descending Minneapolis Center
Sun 09:51:55 AM 41.1831 -99.7244 259° West 371 427 16,600 -1,518 Descending Denver Center
Sun 09:52:56 AM 41.1692 -99.8300 260° West 366 421 15,000 -1,854 Descending Denver Center
Sun 09:53:58 AM 41.1483 -99.9936 260° West 356 410 12,800 -1,869 Descending Denver Center
Sun 09:54:58 AM 41.1328 -100.1028 259° West 326 375 11,200 -1,672 Descending Denver Center
Sun 09:56:00 AM 41.1175 -100.2133 260° West 282 325 9,400 -1,561 Descending Denver Center
Sun 09:57:01 AM 41.1056 -100.3044 260° West 268 308 8,000 -1,377 Descending Denver Center

Login

Don't have an account? Register now (free) for customized features, flight alerts, and more!